sensor_id;sensor_type;location;lat;lon;timestamp;temperature;humidity
26541;DHT22;14206;50.202;10.948;2022-11-20T00:01:24;-3.50;96.60
26541;DHT22;14206;50.202;10.948;2022-11-20T00:03:53;-3.50;96.60
26541;DHT22;14206;50.202;10.948;2022-11-20T00:10:09;-3.40;96.60
26541;DHT22;14206;50.202;10.948;2022-11-20T00:12:58;-3.40;96.60
26541;DHT22;14206;50.202;10.948;2022-11-20T00:15:24;-3.30;96.60
26541;DHT22;14206;50.202;10.948;2022-11-20T00:17:51;-3.30;96.60
26541;DHT22;14206;50.202;10.948;2022-11-20T00:20:18;-3.30;96.60
26541;DHT22;14206;50.202;10.948;2022-11-20T00:22:45;-3.30;96.60
26541;DHT22;14206;50.202;10.948;2022-11-20T00:25:12;-3.30;96.60
26541;DHT22;14206;50.202;10.948;2022-11-20T00:27:39;-3.40;96.60
26541;DHT22;14206;50.202;10.948;2022-11-20T00:30:07;-3.40;96.60
26541;DHT22;14206;50.202;10.948;2022-11-20T00:32:40;-3.40;96.60
26541;DHT22;14206;50.202;10.948;2022-11-20T00:35:07;-3.40;96.60
26541;DHT22;14206;50.202;10.948;2022-11-20T00:37:34;-3.40;96.60
26541;DHT22;14206;50.202;10.948;2022-11-20T00:40:00;-3.40;96.60
26541;DHT22;14206;50.202;10.948;2022-11-20T00:42:27;-3.30;96.60
26541;DHT22;14206;50.202;10.948;2022-11-20T00:44:54;-3.40;96.60
26541;DHT22;14206;50.202;10.948;2022-11-20T00:47:21;-3.40;96.60
26541;DHT22;14206;50.202;10.948;2022-11-20T00:49:47;-3.40;96.60
26541;DHT22;14206;50.202;10.948;2022-11-20T00:52:14;-3.50;96.60
26541;DHT22;14206;50.202;10.948;2022-11-20T00:54:41;-3.50;96.60
26541;DHT22;14206;50.202;10.948;2022-11-20T00:57:08;-3.50;96.60
26541;DHT22;14206;50.202;10.948;2022-11-20T00:59:35;-3.50;96.60
26541;DHT22;14206;50.202;10.948;2022-11-20T01:02:01;-3.50;96.60
26541;DHT22;14206;50.202;10.948;2022-11-20T01:04:28;-3.50;96.60
26541;DHT22;14206;50.202;10.948;2022-11-20T01:06:55;-3.50;96.60
26541;DHT22;14206;50.202;10.948;2022-11-20T01:09:22;-3.50;96.60
26541;DHT22;14206;50.202;10.948;2022-11-20T01:11:49;-3.60;96.60
26541;DHT22;14206;50.202;10.948;2022-11-20T01:14:19;-3.60;96.60
26541;DHT22;14206;50.202;10.948;2022-11-20T01:16:49;-3.60;96.60
26541;DHT22;14206;50.202;10.948;2022-11-20T01:19:19;-3.60;96.60
26541;DHT22;14206;50.202;10.948;2022-11-20T01:21:51;-3.60;96.60
26541;DHT22;14206;50.202;10.948;2022-11-20T01:24:21;-3.60;96.60
26541;DHT22;14206;50.202;10.948;2022-11-20T01:26:49;-3.60;96.60
26541;DHT22;14206;50.202;10.948;2022-11-20T01:29:24;-3.60;96.60
26541;DHT22;14206;50.202;10.948;2022-11-20T01:31:51;-3.60;96.60
26541;DHT22;14206;50.202;10.948;2022-11-20T01:34:20;-3.50;96.60
26541;DHT22;14206;50.202;10.948;2022-11-20T01:36:47;-3.50;96.60
26541;DHT22;14206;50.202;10.948;2022-11-20T01:39:17;-3.40;96.60
26541;DHT22;14206;50.202;10.948;2022-11-20T01:41:46;-3.40;96.60
26541;DHT22;14206;50.202;10.948;2022-11-20T01:47:39;-3.30;96.60
26541;DHT22;14206;50.202;10.948;2022-11-20T01:50:26;-3.30;96.60
26541;DHT22;14206;50.202;10.948;2022-11-20T01:52:59;-3.20;96.60
26541;DHT22;14206;50.202;10.948;2022-11-20T01:55:34;-3.20;96.60
26541;DHT22;14206;50.202;10.948;2022-11-20T01:58:04;-3.10;96.60
26541;DHT22;14206;50.202;10.948;2022-11-20T02:00:31;-3.00;96.60
26541;DHT22;14206;50.202;10.948;2022-11-20T02:03:05;-2.90;96.60
26541;DHT22;14206;50.202;10.948;2022-11-20T02:08:24;-2.80;96.60
26541;DHT22;14206;50.202;10.948;2022-11-20T02:10:51;-2.70;96.60
26541;DHT22;14206;50.202;10.948;2022-11-20T02:13:18;-2.70;96.60
26541;DHT22;14206;50.202;10.948;2022-11-20T02:16:04;-2.60;96.60
26541;DHT22;14206;50.202;10.948;2022-11-20T02:18:34;-2.60;96.60
26541;DHT22;14206;50.202;10.948;2022-11-20T02:21:16;-2.50;96.60
26541;DHT22;14206;50.202;10.948;2022-11-20T02:24:21;-2.50;96.60
26541;DHT22;14206;50.202;10.948;2022-11-20T02:26:55;-2.40;96.60
26541;DHT22;14206;50.202;10.948;2022-11-20T02:29:26;-2.30;96.60
26541;DHT22;14206;50.202;10.948;2022-11-20T02:31:55;-2.20;96.60
26541;DHT22;14206;50.202;10.948;2022-11-20T02:34:22;-2.20;96.60
26541;DHT22;14206;50.202;10.948;2022-11-20T02:36:50;-2.10;96.60
26541;DHT22;14206;50.202;10.948;2022-11-20T02:39:19;-2.00;96.60
26541;DHT22;14206;50.202;10.948;2022-11-20T02:41:47;-1.90;96.60
26541;DHT22;14206;50.202;10.948;2022-11-20T02:44:14;-1.80;96.60
26541;DHT22;14206;50.202;10.948;2022-11-20T02:46:41;-1.80;96.60
26541;DHT22;14206;50.202;10.948;2022-11-20T02:49:08;-1.70;96.60
26541;DHT22;14206;50.202;10.948;2022-11-20T02:51:35;-1.70;96.60
26541;DHT22;14206;50.202;10.948;2022-11-20T02:54:02;-1.70;96.60
26541;DHT22;14206;50.202;10.948;2022-11-20T02:56:30;-1.70;96.60
26541;DHT22;14206;50.202;10.948;2022-11-20T02:58:56;-1.60;96.60
26541;DHT22;14206;50.202;10.948;2022-11-20T03:01:23;-1.60;96.60
26541;DHT22;14206;50.202;10.948;2022-11-20T03:03:50;-1.60;96.60
26541;DHT22;14206;50.202;10.948;2022-11-20T03:06:18;-1.50;96.60
26541;DHT22;14206;50.202;10.948;2022-11-20T03:08:45;-1.40;96.60
26541;DHT22;14206;50.202;10.948;2022-11-20T03:11:12;-1.40;96.10
26541;DHT22;14206;50.202;10.948;2022-11-20T03:13:39;-1.40;95.80
26541;DHT22;14206;50.202;10.948;2022-11-20T03:16:11;-1.40;96.20
26541;DHT22;14206;50.202;10.948;2022-11-20T03:18:39;-1.30;96.40
26541;DHT22;14206;50.202;10.948;2022-11-20T03:21:06;-1.30;96.60
26541;DHT22;14206;50.202;10.948;2022-11-20T03:23:34;-1.20;96.40
26541;DHT22;14206;50.202;10.948;2022-11-20T03:28:38;-1.20;96.20
26541;DHT22;14206;50.202;10.948;2022-11-20T03:31:13;-1.20;96.40
26541;DHT22;14206;50.202;10.948;2022-11-20T03:33:41;-1.20;96.20
26541;DHT22;14206;50.202;10.948;2022-11-20T03:36:11;-1.20;96.40
26541;DHT22;14206;50.202;10.948;2022-11-20T03:38:38;-1.30;96.50
26541;DHT22;14206;50.202;10.948;2022-11-20T03:41:07;-1.30;96.60
26541;DHT22;14206;50.202;10.948;2022-11-20T03:43:35;-1.30;96.60
26541;DHT22;14206;50.202;10.948;2022-11-20T03:46:02;-1.30;96.60
26541;DHT22;14206;50.202;10.948;2022-11-20T03:48:29;-1.30;96.60
26541;DHT22;14206;50.202;10.948;2022-11-20T03:51:21;-1.30;96.60
26541;DHT22;14206;50.202;10.948;2022-11-20T03:53:50;-1.30;96.60
26541;DHT22;14206;50.202;10.948;2022-11-20T03:56:18;-1.30;96.60
26541;DHT22;14206;50.202;10.948;2022-11-20T03:58:46;-1.30;96.60
26541;DHT22;14206;50.202;10.948;2022-11-20T04:03:42;-1.20;96.60
26541;DHT22;14206;50.202;10.948;2022-11-20T04:08:36;-1.10;96.60
26541;DHT22;14206;50.202;10.948;2022-11-20T04:13:41;-0.80;96.60
26541;DHT22;14206;50.202;10.948;2022-11-20T04:16:09;-0.80;96.60
26541;DHT22;14206;50.202;10.948;2022-11-20T04:18:36;-0.80;96.60
26541;DHT22;14206;50.202;10.948;2022-11-20T04:21:04;-0.70;96.60
26541;DHT22;14206;50.202;10.948;2022-11-20T04:23:31;-0.70;96.40
26541;DHT22;14206;50.202;10.948;2022-11-20T04:26:09;-0.80;96.40
26541;DHT22;14206;50.202;10.948;2022-11-20T04:28:37;-0.80;96.40
26541;DHT22;14206;50.202;10.948;2022-11-20T04:31:06;-0.70;96.40
26541;DHT22;14206;50.202;10.948;2022-11-20T04:33:34;-0.80;96.40
26541;DHT22;14206;50.202;10.948;2022-11-20T04:36:12;-0.80;96.60
26541;DHT22;14206;50.202;10.948;2022-11-20T04:38:40;-0.70;96.60
26541;DHT22;14206;50.202;10.948;2022-11-20T04:41:09;-0.70;96.50
26541;DHT22;14206;50.202;10.948;2022-11-20T04:43:37;-0.60;96.10
26541;DHT22;14206;50.202;10.948;2022-11-20T04:46:04;-0.60;96.60
26541;DHT22;14206;50.202;10.948;2022-11-20T04:48:31;-0.60;96.60
26541;DHT22;14206;50.202;10.948;2022-11-20T04:51:02;-0.50;96.50
26541;DHT22;14206;50.202;10.948;2022-11-20T04:53:30;-0.50;96.40
26541;DHT22;14206;50.202;10.948;2022-11-20T04:56:05;-0.50;96.40
26541;DHT22;14206;50.202;10.948;2022-11-20T04:58:35;-0.50;96.20
26541;DHT22;14206;50.202;10.948;2022-11-20T05:01:13;-0.50;96.20
26541;DHT22;14206;50.202;10.948;2022-11-20T05:03:41;-0.50;96.20
26541;DHT22;14206;50.202;10.948;2022-11-20T05:06:11;-0.50;96.30
26541;DHT22;14206;50.202;10.948;2022-11-20T05:08:38;-0.40;96.50
26541;DHT22;14206;50.202;10.948;2022-11-20T05:11:07;-0.40;96.20
26541;DHT22;14206;50.202;10.948;2022-11-20T05:13:35;-0.40;96.20
26541;DHT22;14206;50.202;10.948;2022-11-20T05:16:10;-0.40;96.30
26541;DHT22;14206;50.202;10.948;2022-11-20T05:18:39;-0.40;96.20
26541;DHT22;14206;50.202;10.948;2022-11-20T05:21:06;-0.30;96.20
26541;DHT22;14206;50.202;10.948;2022-11-20T05:23:34;-0.40;95.90
26541;DHT22;14206;50.202;10.948;2022-11-20T05:26:02;-0.30;96.30
26541;DHT22;14206;50.202;10.948;2022-11-20T05:28:29;-0.30;96.00
26541;DHT22;14206;50.202;10.948;2022-11-20T05:31:05;-0.30;95.80
26541;DHT22;14206;50.202;10.948;2022-11-20T05:33:33;-0.30;96.10
26541;DHT22;14206;50.202;10.948;2022-11-20T05:36:00;-0.30;96.30
26541;DHT22;14206;50.202;10.948;2022-11-20T05:38:27;-0.20;96.20
26541;DHT22;14206;50.202;10.948;2022-11-20T05:40:54;-0.20;95.90
26541;DHT22;14206;50.202;10.948;2022-11-20T05:43:20;-0.20;96.20
26541;DHT22;14206;50.202;10.948;2022-11-20T05:45:54;-0.20;96.00
26541;DHT22;14206;50.202;10.948;2022-11-20T05:48:21;-0.30;96.20
26541;DHT22;14206;50.202;10.948;2022-11-20T05:50:48;-0.30;96.60
26541;DHT22;14206;50.202;10.948;2022-11-20T05:53:15;-0.20;96.50
26541;DHT22;14206;50.202;10.948;2022-11-20T05:55:42;-0.20;96.50
26541;DHT22;14206;50.202;10.948;2022-11-20T05:58:09;-0.20;96.00
26541;DHT22;14206;50.202;10.948;2022-11-20T06:00:36;-0.10;96.50
26541;DHT22;14206;50.202;10.948;2022-11-20T06:03:03;-0.10;96.40
26541;DHT22;14206;50.202;10.948;2022-11-20T06:05:30;-0.10;96.20
26541;DHT22;14206;50.202;10.948;2022-11-20T06:07:57;0.00;96.10
26541;DHT22;14206;50.202;10.948;2022-11-20T06:10:24;0.00;96.00
26541;DHT22;14206;50.202;10.948;2022-11-20T06:12:50;0.00;96.10
26541;DHT22;14206;50.202;10.948;2022-11-20T06:15:17;0.00;95.80
26541;DHT22;14206;50.202;10.948;2022-11-20T06:17:44;0.00;96.10
26541;DHT22;14206;50.202;10.948;2022-11-20T06:20:11;0.00;95.90
26541;DHT22;14206;50.202;10.948;2022-11-20T06:22:37;0.00;95.90
26541;DHT22;14206;50.202;10.948;2022-11-20T06:25:04;0.00;95.90
26541;DHT22;14206;50.202;10.948;2022-11-20T06:27:31;0.00;96.00
26541;DHT22;14206;50.202;10.948;2022-11-20T06:29:58;-0.10;96.20
26541;DHT22;14206;50.202;10.948;2022-11-20T06:32:25;-0.10;96.10
26541;DHT22;14206;50.202;10.948;2022-11-20T06:34:51;-0.10;96.40
26541;DHT22;14206;50.202;10.948;2022-11-20T06:37:18;-0.10;96.40
26541;DHT22;14206;50.202;10.948;2022-11-20T06:39:45;-0.10;96.60
26541;DHT22;14206;50.202;10.948;2022-11-20T06:42:12;-0.10;96.60
26541;DHT22;14206;50.202;10.948;2022-11-20T06:44:38;-0.10;96.60
26541;DHT22;14206;50.202;10.948;2022-11-20T06:47:05;-0.10;96.60
26541;DHT22;14206;50.202;10.948;2022-11-20T06:49:32;0.00;96.60
26541;DHT22;14206;50.202;10.948;2022-11-20T06:52:00;0.10;96.60
26541;DHT22;14206;50.202;10.948;2022-11-20T06:54:27;0.10;96.60
26541;DHT22;14206;50.202;10.948;2022-11-20T06:56:54;0.10;96.20
26541;DHT22;14206;50.202;10.948;2022-11-20T06:59:21;0.10;95.90
26541;DHT22;14206;50.202;10.948;2022-11-20T07:01:48;0.10;96.20
26541;DHT22;14206;50.202;10.948;2022-11-20T07:04:15;0.10;96.40
26541;DHT22;14206;50.202;10.948;2022-11-20T07:06:42;0.20;96.50
26541;DHT22;14206;50.202;10.948;2022-11-20T07:09:09;0.20;96.20
26541;DHT22;14206;50.202;10.948;2022-11-20T07:11:38;0.20;96.20
26541;DHT22;14206;50.202;10.948;2022-11-20T07:14:05;0.20;96.30
26541;DHT22;14206;50.202;10.948;2022-11-20T07:16:32;0.30;96.30
26541;DHT22;14206;50.202;10.948;2022-11-20T07:18:59;0.30;96.30
26541;DHT22;14206;50.202;10.948;2022-11-20T07:21:26;0.30;96.40
26541;DHT22;14206;50.202;10.948;2022-11-20T07:23:52;0.30;96.10
26541;DHT22;14206;50.202;10.948;2022-11-20T07:26:19;0.40;96.00
26541;DHT22;14206;50.202;10.948;2022-11-20T07:28:46;0.40;96.20
26541;DHT22;14206;50.202;10.948;2022-11-20T07:31:13;0.50;95.80
26541;DHT22;14206;50.202;10.948;2022-11-20T07:33:44;0.50;96.00
26541;DHT22;14206;50.202;10.948;2022-11-20T07:36:11;0.60;95.90
26541;DHT22;14206;50.202;10.948;2022-11-20T07:38:38;0.60;95.60
26541;DHT22;14206;50.202;10.948;2022-11-20T07:41:05;0.60;96.00
26541;DHT22;14206;50.202;10.948;2022-11-20T07:43:32;0.60;95.80
26541;DHT22;14206;50.202;10.948;2022-11-20T07:46:06;0.70;95.80
26541;DHT22;14206;50.202;10.948;2022-11-20T07:48:33;0.70;95.20
26541;DHT22;14206;50.202;10.948;2022-11-20T07:51:00;0.60;95.30
26541;DHT22;14206;50.202;10.948;2022-11-20T07:53:26;0.70;95.30
26541;DHT22;14206;50.202;10.948;2022-11-20T07:55:53;0.70;95.60
26541;DHT22;14206;50.202;10.948;2022-11-20T07:58:21;0.80;95.10
26541;DHT22;14206;50.202;10.948;2022-11-20T08:00:48;0.90;95.30
26541;DHT22;14206;50.202;10.948;2022-11-20T08:03:15;1.00;94.60
26541;DHT22;14206;50.202;10.948;2022-11-20T08:05:49;1.00;94.60
26541;DHT22;14206;50.202;10.948;2022-11-20T08:08:16;1.10;94.90
26541;DHT22;14206;50.202;10.948;2022-11-20T08:10:43;1.10;94.00
26541;DHT22;14206;50.202;10.948;2022-11-20T08:13:09;1.10;94.30
26541;DHT22;14206;50.202;10.948;2022-11-20T08:15:55;1.10;94.50
26541;DHT22;14206;50.202;10.948;2022-11-20T08:18:22;1.20;93.80
26541;DHT22;14206;50.202;10.948;2022-11-20T08:20:58;1.30;94.40
26541;DHT22;14206;50.202;10.948;2022-11-20T08:23:25;1.30;94.70
26541;DHT22;14206;50.202;10.948;2022-11-20T08:25:52;1.40;94.20
26541;DHT22;14206;50.202;10.948;2022-11-20T08:28:19;1.40;94.30
26541;DHT22;14206;50.202;10.948;2022-11-20T08:30:48;1.40;94.00
26541;DHT22;14206;50.202;10.948;2022-11-20T08:33:17;1.50;93.60
26541;DHT22;14206;50.202;10.948;2022-11-20T08:35:44;1.50;93.70
26541;DHT22;14206;50.202;10.948;2022-11-20T08:38:11;1.60;93.60
26541;DHT22;14206;50.202;10.948;2022-11-20T08:40:38;1.70;94.20
26541;DHT22;14206;50.202;10.948;2022-11-20T08:43:05;1.70;92.50
26541;DHT22;14206;50.202;10.948;2022-11-20T08:45:32;1.70;93.50
26541;DHT22;14206;50.202;10.948;2022-11-20T08:48:04;1.80;93.50
26541;DHT22;14206;50.202;10.948;2022-11-20T08:50:31;1.80;93.00
26541;DHT22;14206;50.202;10.948;2022-11-20T08:53:04;1.80;93.00
26541;DHT22;14206;50.202;10.948;2022-11-20T08:55:31;2.00;93.00
26541;DHT22;14206;50.202;10.948;2022-11-20T08:58:02;2.00;92.70
26541;DHT22;14206;50.202;10.948;2022-11-20T09:00:30;2.00;92.70
26541;DHT22;14206;50.202;10.948;2022-11-20T09:02:57;2.00;93.20
26541;DHT22;14206;50.202;10.948;2022-11-20T09:05:25;2.00;92.70
26541;DHT22;14206;50.202;10.948;2022-11-20T09:07:52;2.00;92.50
26541;DHT22;14206;50.202;10.948;2022-11-20T09:10:19;2.00;93.10
26541;DHT22;14206;50.202;10.948;2022-11-20T09:12:51;2.00;92.90
26541;DHT22;14206;50.202;10.948;2022-11-20T09:15:19;2.00;92.00
26541;DHT22;14206;50.202;10.948;2022-11-20T09:17:53;2.00;92.30
26541;DHT22;14206;50.202;10.948;2022-11-20T09:20:20;1.90;92.10
26541;DHT22;14206;50.202;10.948;2022-11-20T09:22:47;1.90;93.30
26541;DHT22;14206;50.202;10.948;2022-11-20T09:25:14;2.00;93.30
26541;DHT22;14206;50.202;10.948;2022-11-20T09:27:41;2.00;93.50
26541;DHT22;14206;50.202;10.948;2022-11-20T09:30:11;1.90;93.60
26541;DHT22;14206;50.202;10.948;2022-11-20T09:32:39;1.90;93.30
26541;DHT22;14206;50.202;10.948;2022-11-20T09:35:06;2.00;93.60
26541;DHT22;14206;50.202;10.948;2022-11-20T09:37:34;2.00;93.20
26541;DHT22;14206;50.202;10.948;2022-11-20T09:40:01;2.00;93.10
26541;DHT22;14206;50.202;10.948;2022-11-20T09:50:48;2.10;93.60
26541;DHT22;14206;50.202;10.948;2022-11-20T09:55:54;2.10;93.30
26541;DHT22;14206;50.202;10.948;2022-11-20T09:58:29;2.00;93.30
26541;DHT22;14206;50.202;10.948;2022-11-20T10:00:57;2.00;93.40
26541;DHT22;14206;50.202;10.948;2022-11-20T10:03:51;2.00;93.90
26541;DHT22;14206;50.202;10.948;2022-11-20T10:06:28;2.00;93.80
26541;DHT22;14206;50.202;10.948;2022-11-20T10:30:41;2.20;94.70
26541;DHT22;14206;50.202;10.948;2022-11-20T10:33:23;2.20;94.60
26541;DHT22;14206;50.202;10.948;2022-11-20T10:36:19;2.20;94.60
26541;DHT22;14206;50.202;10.948;2022-11-20T10:38:52;2.30;94.30
26541;DHT22;14206;50.202;10.948;2022-11-20T10:41:32;2.30;93.80
26541;DHT22;14206;50.202;10.948;2022-11-20T10:46:43;2.40;93.80
26541;DHT22;14206;50.202;10.948;2022-11-20T10:49:18;2.30;93.80
26541;DHT22;14206;50.202;10.948;2022-11-20T11:00:05;2.60;94.20
26541;DHT22;14206;50.202;10.948;2022-11-20T11:07:54;2.60;93.60
26541;DHT22;14206;50.202;10.948;2022-11-20T11:12:55;2.60;93.80
26541;DHT22;14206;50.202;10.948;2022-11-20T11:15:36;2.50;94.00
26541;DHT22;14206;50.202;10.948;2022-11-20T11:18:04;2.50;94.60
26541;DHT22;14206;50.202;10.948;2022-11-20T11:20:31;2.60;95.00
26541;DHT22;14206;50.202;10.948;2022-11-20T11:22:59;2.70;94.30
26541;DHT22;14206;50.202;10.948;2022-11-20T11:25:30;2.70;93.80
26541;DHT22;14206;50.202;10.948;2022-11-20T11:28:00;2.80;94.30
26541;DHT22;14206;50.202;10.948;2022-11-20T11:30:29;2.90;94.80
26541;DHT22;14206;50.202;10.948;2022-11-20T11:33:10;3.10;94.00
26541;DHT22;14206;50.202;10.948;2022-11-20T11:35:46;3.20;93.70
26541;DHT22;14206;50.202;10.948;2022-11-20T11:38:21;3.30;93.40
26541;DHT22;14206;50.202;10.948;2022-11-20T11:40:48;3.20;93.00
26541;DHT22;14206;50.202;10.948;2022-11-20T11:43:26;3.10;93.10
26541;DHT22;14206;50.202;10.948;2022-11-20T11:46:34;3.10;92.90
26541;DHT22;14206;50.202;10.948;2022-11-20T11:54:22;3.00;93.00
26541;DHT22;14206;50.202;10.948;2022-11-20T11:56:51;3.10;93.40
26541;DHT22;14206;50.202;10.948;2022-11-20T11:59:33;3.20;94.00
26541;DHT22;14206;50.202;10.948;2022-11-20T12:02:27;3.50;93.50
26541;DHT22;14206;50.202;10.948;2022-11-20T12:15:51;3.10;94.30
26541;DHT22;14206;50.202;10.948;2022-11-20T12:18:20;3.20;94.50
26541;DHT22;14206;50.202;10.948;2022-11-20T12:21:11;3.40;93.70
26541;DHT22;14206;50.202;10.948;2022-11-20T12:23:52;3.50;93.20
26541;DHT22;14206;50.202;10.948;2022-11-20T12:26:57;3.60;92.60
26541;DHT22;14206;50.202;10.948;2022-11-20T12:50:19;3.80;93.20
26541;DHT22;14206;50.202;10.948;2022-11-20T12:53:12;3.70;92.70
26541;DHT22;14206;50.202;10.948;2022-11-20T13:04:18;3.80;93.60
26541;DHT22;14206;50.202;10.948;2022-11-20T13:06:47;3.80;94.20
26541;DHT22;14206;50.202;10.948;2022-11-20T13:09:16;4.00;93.80
26541;DHT22;14206;50.202;10.948;2022-11-20T13:17:36;4.10;92.70
26541;DHT22;14206;50.202;10.948;2022-11-20T13:20:06;4.30;92.90
26541;DHT22;14206;50.202;10.948;2022-11-20T13:22:50;4.50;93.00
26541;DHT22;14206;50.202;10.948;2022-11-20T13:25:33;4.50;92.80
26541;DHT22;14206;50.202;10.948;2022-11-20T13:28:04;4.40;91.80
26541;DHT22;14206;50.202;10.948;2022-11-20T13:30:31;4.20;92.50
26541;DHT22;14206;50.202;10.948;2022-11-20T13:33:07;4.10;93.40
26541;DHT22;14206;50.202;10.948;2022-11-20T13:35:37;4.00;93.60
26541;DHT22;14206;50.202;10.948;2022-11-20T13:38:12;4.00;93.80
26541;DHT22;14206;50.202;10.948;2022-11-20T13:41:00;3.90;94.40
26541;DHT22;14206;50.202;10.948;2022-11-20T13:43:52;3.90;94.20
26541;DHT22;14206;50.202;10.948;2022-11-20T13:46:19;3.70;94.60
26541;DHT22;14206;50.202;10.948;2022-11-20T13:48:51;3.60;95.00
26541;DHT22;14206;50.202;10.948;2022-11-20T13:59:58;3.60;95.00
26541;DHT22;14206;50.202;10.948;2022-11-20T14:02:36;3.60;95.80
26541;DHT22;14206;50.202;10.948;2022-11-20T14:05:04;3.60;95.80
26541;DHT22;14206;50.202;10.948;2022-11-20T14:07:36;3.50;96.00
26541;DHT22;14206;50.202;10.948;2022-11-20T14:10:04;3.40;96.50
26541;DHT22;14206;50.202;10.948;2022-11-20T14:12:33;3.40;96.20
26541;DHT22;14206;50.202;10.948;2022-11-20T14:15:00;3.40;96.60
26541;DHT22;14206;50.202;10.948;2022-11-20T14:17:33;3.40;96.60
26541;DHT22;14206;50.202;10.948;2022-11-20T14:20:04;3.40;96.60
26541;DHT22;14206;50.202;10.948;2022-11-20T14:22:33;3.40;96.60
26541;DHT22;14206;50.202;10.948;2022-11-20T14:25:04;3.40;96.60
26541;DHT22;14206;50.202;10.948;2022-11-20T14:27:43;3.40;96.60
26541;DHT22;14206;50.202;10.948;2022-11-20T14:30:17;3.40;96.60
26541;DHT22;14206;50.202;10.948;2022-11-20T14:32:46;3.40;96.60
26541;DHT22;14206;50.202;10.948;2022-11-20T14:35:21;3.50;96.60
26541;DHT22;14206;50.202;10.948;2022-11-20T14:37:49;3.50;96.60
26541;DHT22;14206;50.202;10.948;2022-11-20T14:40:34;3.50;96.60
26541;DHT22;14206;50.202;10.948;2022-11-20T14:43:20;3.50;96.60
26541;DHT22;14206;50.202;10.948;2022-11-20T14:45:59;3.60;96.60
26541;DHT22;14206;50.202;10.948;2022-11-20T14:48:41;3.60;96.60
26541;DHT22;14206;50.202;10.948;2022-11-20T14:51:10;3.50;96.60
26541;DHT22;14206;50.202;10.948;2022-11-20T14:53:37;3.60;96.60
26541;DHT22;14206;50.202;10.948;2022-11-20T14:56:04;3.60;96.60
26541;DHT22;14206;50.202;10.948;2022-11-20T14:58:33;3.50;96.60
26541;DHT22;14206;50.202;10.948;2022-11-20T15:01:07;3.50;96.60
26541;DHT22;14206;50.202;10.948;2022-11-20T15:03:39;3.50;96.60
26541;DHT22;14206;50.202;10.948;2022-11-20T15:06:10;3.40;96.60
26541;DHT22;14206;50.202;10.948;2022-11-20T15:08:37;3.40;96.60
26541;DHT22;14206;50.202;10.948;2022-11-20T15:11:20;3.40;96.60
26541;DHT22;14206;50.202;10.948;2022-11-20T15:13:50;3.30;96.60
26541;DHT22;14206;50.202;10.948;2022-11-20T15:16:21;3.20;96.60
26541;DHT22;14206;50.202;10.948;2022-11-20T15:18:49;3.10;96.60
26541;DHT22;14206;50.202;10.948;2022-11-20T15:21:18;3.10;96.60
26541;DHT22;14206;50.202;10.948;2022-11-20T15:23:47;3.10;96.60
26541;DHT22;14206;50.202;10.948;2022-11-20T15:26:24;3.10;96.60
26541;DHT22;14206;50.202;10.948;2022-11-20T15:28:52;3.00;96.60
26541;DHT22;14206;50.202;10.948;2022-11-20T15:31:21;3.00;96.60
26541;DHT22;14206;50.202;10.948;2022-11-20T15:33:49;3.00;96.60
26541;DHT22;14206;50.202;10.948;2022-11-20T15:36:16;3.10;96.60
26541;DHT22;14206;50.202;10.948;2022-11-20T15:38:43;3.00;96.60
26541;DHT22;14206;50.202;10.948;2022-11-20T15:41:10;2.90;96.60
26541;DHT22;14206;50.202;10.948;2022-11-20T15:43:37;2.90;96.60
26541;DHT22;14206;50.202;10.948;2022-11-20T15:46:09;2.80;96.60
26541;DHT22;14206;50.202;10.948;2022-11-20T15:48:45;2.80;96.60
26541;DHT22;14206;50.202;10.948;2022-11-20T15:51:29;2.80;96.60
26541;DHT22;14206;50.202;10.948;2022-11-20T15:53:57;2.90;96.60
26541;DHT22;14206;50.202;10.948;2022-11-20T15:56:25;3.00;96.60
26541;DHT22;14206;50.202;10.948;2022-11-20T15:58:52;3.00;96.60
26541;DHT22;14206;50.202;10.948;2022-11-20T16:01:21;3.10;96.60
26541;DHT22;14206;50.202;10.948;2022-11-20T16:03:48;3.20;96.60
26541;DHT22;14206;50.202;10.948;2022-11-20T16:06:15;3.20;96.60
26541;DHT22;14206;50.202;10.948;2022-11-20T16:08:43;3.30;96.60
26541;DHT22;14206;50.202;10.948;2022-11-20T16:11:14;3.40;96.60
26541;DHT22;14206;50.202;10.948;2022-11-20T16:13:42;3.40;96.60
26541;DHT22;14206;50.202;10.948;2022-11-20T16:16:34;3.40;96.60
26541;DHT22;14206;50.202;10.948;2022-11-20T16:19:01;3.40;96.60
26541;DHT22;14206;50.202;10.948;2022-11-20T16:21:29;3.40;96.60
26541;DHT22;14206;50.202;10.948;2022-11-20T16:24:01;3.40;96.60
26541;DHT22;14206;50.202;10.948;2022-11-20T16:26:28;3.50;96.60
26541;DHT22;14206;50.202;10.948;2022-11-20T16:28:55;3.50;96.60
26541;DHT22;14206;50.202;10.948;2022-11-20T16:31:22;3.50;96.60
26541;DHT22;14206;50.202;10.948;2022-11-20T16:33:54;3.40;96.60
26541;DHT22;14206;50.202;10.948;2022-11-20T16:36:23;3.30;96.60
26541;DHT22;14206;50.202;10.948;2022-11-20T16:38:54;3.20;96.60
26541;DHT22;14206;50.202;10.948;2022-11-20T16:41:22;3.10;96.60
26541;DHT22;14206;50.202;10.948;2022-11-20T16:43:54;3.10;96.60
26541;DHT22;14206;50.202;10.948;2022-11-20T16:46:25;3.20;96.60
26541;DHT22;14206;50.202;10.948;2022-11-20T16:49:03;3.30;96.60
26541;DHT22;14206;50.202;10.948;2022-11-20T16:51:32;3.30;96.60
26541;DHT22;14206;50.202;10.948;2022-11-20T16:54:04;3.40;96.60
26541;DHT22;14206;50.202;10.948;2022-11-20T16:56:32;3.40;96.60
26541;DHT22;14206;50.202;10.948;2022-11-20T16:58:59;3.50;96.60
26541;DHT22;14206;50.202;10.948;2022-11-20T17:01:27;3.50;96.60
26541;DHT22;14206;50.202;10.948;2022-11-20T17:03:59;3.50;96.60
26541;DHT22;14206;50.202;10.948;2022-11-20T17:06:29;3.50;96.60
26541;DHT22;14206;50.202;10.948;2022-11-20T17:08:58;3.50;96.60
26541;DHT22;14206;50.202;10.948;2022-11-20T17:11:25;3.60;96.60
26541;DHT22;14206;50.202;10.948;2022-11-20T17:13:57;3.60;96.60
26541;DHT22;14206;50.202;10.948;2022-11-20T17:16:26;3.60;96.60
26541;DHT22;14206;50.202;10.948;2022-11-20T17:18:55;3.60;96.60
26541;DHT22;14206;50.202;10.948;2022-11-20T17:21:30;3.60;96.60
26541;DHT22;14206;50.202;10.948;2022-11-20T17:24:00;3.60;96.60
26541;DHT22;14206;50.202;10.948;2022-11-20T17:26:31;3.60;96.60
26541;DHT22;14206;50.202;10.948;2022-11-20T17:31:37;3.50;96.60
26541;DHT22;14206;50.202;10.948;2022-11-20T17:34:06;3.60;96.60
26541;DHT22;14206;50.202;10.948;2022-11-20T17:36:33;3.60;96.60
26541;DHT22;14206;50.202;10.948;2022-11-20T17:39:00;3.60;96.60
26541;DHT22;14206;50.202;10.948;2022-11-20T17:41:28;3.60;96.60
26541;DHT22;14206;50.202;10.948;2022-11-20T17:43:58;3.70;96.60
26541;DHT22;14206;50.202;10.948;2022-11-20T17:46:28;3.70;96.60
26541;DHT22;14206;50.202;10.948;2022-11-20T17:48:55;3.70;96.60
26541;DHT22;14206;50.202;10.948;2022-11-20T17:51:27;3.70;96.60
26541;DHT22;14206;50.202;10.948;2022-11-20T17:53:57;3.60;96.60
26541;DHT22;14206;50.202;10.948;2022-11-20T17:56:24;3.60;96.60
26541;DHT22;14206;50.202;10.948;2022-11-20T17:59:11;3.60;96.60